Time;durP1;ratioP1;P1;durP2;ratioP2;P2;SDS_P1;SDS_P2;PMS_P1;PMS_P2;Temp;Humidity;BMP_temperature;BMP_pressure;BME280_temperature;BME280_humidity;BME280_pressure;Samples;Min_cycle;Max_cycle;Signal;HPM_P1;HPM_P2
2022/06/07 00:02:30;;;;;;;1.77;0.40;;;16.30;99.90;;;-146.41;100.00;57768.22;4980250;28;20054;-65
2022/06/07 00:04:57;;;;;;;1.90;0.57;;;16.40;99.90;;;-146.41;100.00;57768.22;4985791;28;20137;-65
2022/06/07 00:07:27;;;;;;;6.15;0.70;;;16.50;99.90;;;-146.41;100.00;57768.22;4980228;28;20141;-65
2022/06/07 00:09:55;;;;;;;1.83;0.57;;;16.50;99.90;;;-146.41;100.00;57768.22;4983150;28;20065;-64
2022/06/07 00:12:23;;;;;;;1.00;0.50;;;16.40;99.90;;;-146.41;100.00;57768.22;4984105;28;20056;-66
2022/06/07 00:14:50;;;;;;;4.00;0.52;;;16.10;99.90;;;-146.41;100.00;57768.22;4983283;28;20094;-65
2022/06/07 00:17:18;;;;;;;4.45;0.60;;;16.10;99.90;;;-146.41;100.00;57768.22;4984082;28;20499;-66
2022/06/07 00:19:45;;;;;;;1.10;0.50;;;16.00;99.90;;;-146.41;100.00;57768.22;4981399;28;20109;-64
2022/06/07 00:22:12;;;;;;;1.40;0.50;;;16.00;99.90;;;-146.41;100.00;57768.22;4988205;28;20129;-64
2022/06/07 00:24:40;;;;;;;1.60;0.57;;;;;;;-146.41;100.00;57768.22;4985026;28;20556;-65
2022/06/07 00:27:08;;;;;;;5.07;0.70;;;15.90;99.90;;;-146.41;100.00;57768.22;4972715;28;20133;-67
2022/06/07 00:29:36;;;;;;;1.95;0.55;;;15.90;99.90;;;-146.41;100.00;57768.22;4972867;28;20751;-65
2022/06/07 00:32:05;;;;;;;3.15;0.70;;;;;;;-146.41;100.00;57768.22;4968168;28;20474;-64
2022/06/07 00:34:35;;;;;;;1.55;0.55;;;;;;;-146.41;100.00;57768.22;4986220;28;20058;-64
2022/06/07 00:37:02;;;;;;;2.42;0.70;;;;;;;-146.41;100.00;57768.22;4973044;28;20369;-65
2022/06/07 00:39:30;;;;;;;1.05;0.60;;;;;;;-146.41;100.00;57768.22;4970908;28;21043;-64
2022/06/07 00:41:57;;;;;;;1.85;0.60;;;;;;;-146.41;100.00;57768.22;4986014;28;20125;-65
2022/06/07 00:44:46;;;;;;;1.42;0.70;;;;;;;-146.41;100.00;57768.22;4987897;28;20060;-65
2022/06/07 00:47:20;;;;;;;2.50;0.55;;;;;;;-146.41;100.00;57768.22;4991813;28;20066;-65
2022/06/07 00:49:51;;;;;;;2.53;0.68;;;;;;;-146.41;100.00;57768.22;4989954;28;20476;-66
2022/06/07 00:52:20;;;;;;;2.50;0.77;;;;;;;-146.41;100.00;57768.22;4990890;28;21328;-64
2022/06/07 00:54:48;;;;;;;2.75;0.65;;;;;;;-146.41;100.00;57768.22;4991753;28;20182;-66
2022/06/07 00:57:16;;;;;;;3.28;0.80;;;;;;;-146.41;100.00;57768.22;4988116;28;20125;-66
2022/06/07 00:59:43;;;;;;;2.10;0.68;;;;;;;-146.41;100.00;57768.22;4994801;28;20182;-66
2022/06/07 01:02:10;;;;;;;2.15;0.57;;;;;;;-146.41;100.00;57768.22;4973105;28;20116;-66
2022/06/07 01:04:38;;;;;;;2.35;0.55;;;;;;;-146.41;100.00;57768.22;4992838;28;20133;-66
2022/06/07 01:12:38;;;;;;;0.90;0.50;;;;;;;-146.41;100.00;57768.22;4988711;28;20373;-66
2022/06/07 01:15:06;;;;;;;2.38;0.50;;;;;;;-146.41;100.00;57768.22;4991512;28;20435;-65
2022/06/07 01:17:33;;;;;;;2.15;0.55;;;;;;;-146.41;100.00;57768.22;4990473;28;20066;-66
2022/06/07 01:20:01;;;;;;;1.63;0.57;;;;;;;-146.41;100.00;57768.22;4989391;28;20445;-65
2022/06/07 01:22:29;;;;;;;2.55;0.90;;;;;;;-146.41;100.00;57768.22;4991581;28;20483;-64
2022/06/07 01:24:57;;;;;;;1.65;0.55;;;;;;;-146.41;100.00;57768.22;4993153;28;20526;-65
2022/06/07 01:27:24;;;;;;;2.30;0.55;;;;;;;-146.41;100.00;57768.22;4994902;28;20100;-66
2022/06/07 01:29:52;;;;;;;3.67;0.73;;;;;;;-146.41;100.00;57768.22;4994436;28;20152;-65
2022/06/07 01:32:19;;;;;;;1.10;0.50;;;;;;;-146.41;100.00;57768.22;4991149;28;20154;-65
2022/06/07 01:34:47;;;;;;;1.45;0.73;;;;;;;-146.41;100.00;57768.22;4987491;28;20069;-67
2022/06/07 01:37:17;;;;;;;6.68;0.70;;;;;;;-146.41;100.00;57768.22;4988416;28;20094;-65
2022/06/07 01:42:31;;;;;;;1.85;0.70;;;;;;;-146.41;100.00;57768.22;4988017;28;20133;-67
2022/06/07 01:44:59;;;;;;;4.40;0.82;;;;;;;-146.41;100.00;57768.22;4992628;28;20141;-66
2022/06/07 01:47:30;;;;;;;4.82;0.68;;;;;;;-146.41;100.00;57768.22;4979186;28;20050;-66
2022/06/07 01:49:58;;;;;;;1.83;0.68;;;;;;;-146.41;100.00;57768.22;4989837;28;20065;-65
2022/06/07 01:52:28;;;;;;;2.70;0.68;;;;;;;-146.41;100.00;57768.22;4987798;28;20093;-67
2022/06/07 01:54:56;;;;;;;2.30;1.10;;;;;;;-146.41;100.00;57768.22;4986804;28;20454;-66
2022/06/07 01:57:24;;;;;;;1.77;0.70;;;;;;;-146.41;100.00;57768.22;4975353;28;20105;-65
2022/06/07 01:59:51;;;;;;;3.85;1.00;;;;;;;-146.41;100.00;57768.22;4990672;28;20070;-65
2022/06/07 02:02:19;;;;;;;3.53;0.73;;;;;;;-146.41;100.00;57768.22;4992398;28;20054;-65
2022/06/07 02:04:47;;;;;;;2.15;0.80;;;;;;;-146.41;100.00;57768.22;4988933;28;20145;-66
2022/06/07 02:07:15;;;;;;;1.23;0.60;;;;;;;-146.41;100.00;57768.22;4988325;28;20145;-66
2022/06/07 02:09:43;;;;;;;2.28;0.70;;;;;;;-146.41;100.00;57768.22;4988340;28;20481;-65
2022/06/07 02:12:11;;;;;;;2.80;0.90;;;;;;;-146.41;100.00;57768.22;4986380;28;20054;-65
2022/06/07 02:14:39;;;;;;;2.30;0.60;;;;;;;-146.41;100.00;57768.22;4989667;28;20133;-65
2022/06/07 02:17:07;;;;;;;3.92;0.70;;;;;;;-146.41;100.00;57768.22;4989548;28;20157;-65
2022/06/07 02:19:35;;;;;;;2.08;0.60;;;;;;;-146.41;100.00;57768.22;4985660;28;20195;-66
2022/06/07 02:22:04;;;;;;;2.03;0.80;;;;;;;-146.41;100.00;57768.22;4970373;28;20046;-65
2022/06/07 02:24:31;;;;;;;3.25;0.80;;;;;;;-146.41;100.00;57768.22;4973729;28;20074;-66
2022/06/07 02:27:07;;;;;;;2.30;0.68;;;;;;;-146.41;100.00;57768.22;4990240;28;20070;-66
2022/06/07 02:29:39;;;;;;;1.63;0.82;;;;;;;-146.41;100.00;57768.22;4989238;28;20050;-65
2022/06/07 02:32:22;;;;;;;1.25;0.60;;;;;;;-146.41;100.00;57768.22;4949549;28;20400;-65
2022/06/07 02:34:53;;;;;;;2.15;0.85;;;;;;;-146.41;100.00;57768.22;4993702;28;20096;-65
2022/06/07 02:37:21;;;;;;;5.30;0.70;;;;;;;-146.41;100.00;57768.22;4990854;28;20093;-65
2022/06/07 02:39:49;;;;;;;2.85;0.70;;;;;;;-146.41;100.00;57768.22;4989041;28;20054;-65
2022/06/07 02:42:20;;;;;;;2.10;0.65;;;;;;;-146.41;100.00;57768.22;4971182;28;20514;-65
2022/06/07 02:44:48;;;;;;;3.45;0.80;;;;;;;-146.41;100.00;57768.22;4985362;28;20198;-66
2022/06/07 02:47:16;;;;;;;3.75;1.00;;;;;;;-146.41;100.00;57768.22;4971419;28;20050;-65
2022/06/07 02:49:43;;;;;;;3.30;0.82;;;;;;;-146.41;100.00;57768.22;4984913;28;20050;-65
2022/06/07 02:52:11;;;;;;;2.22;0.80;;;;;;;-146.41;100.00;57768.22;4987115;28;20628;-66
2022/06/07 02:54:38;;;;;;;3.83;0.85;;;;;;;-146.41;100.00;57768.22;4986730;28;20140;-66
2022/06/07 02:57:06;;;;;;;2.45;0.60;;;;;;;-146.41;100.00;57768.22;4985902;28;20050;-65
2022/06/07 02:59:33;;;;;;;2.03;0.70;;;;;;;-146.41;100.00;57768.22;4991996;28;20116;-65
2022/06/07 03:02:01;;;;;;;1.70;0.70;;;;;;;-146.41;100.00;57768.22;4987733;28;20129;-66
2022/06/07 03:04:29;;;;;;;5.57;0.93;;;;;;;-146.41;100.00;57768.22;4986715;28;20065;-66
2022/06/07 03:06:56;;;;;;;3.17;1.00;;;;;;;-146.41;100.00;57768.22;4987826;28;20060;-67
2022/06/07 03:09:23;;;;;;;1.95;0.77;;;;;;;-146.41;100.00;57768.22;4991620;28;20046;-67
2022/06/07 03:11:51;;;;;;;3.33;0.90;;;;;;;-146.41;100.00;57768.22;4987807;28;20185;-64
2022/06/07 03:14:18;;;;;;;2.42;0.57;;;;;;;-146.41;100.00;57768.22;4992127;28;20078;-66
2022/06/07 03:16:45;;;;;;;2.47;0.60;;;;;;;-146.41;100.00;57768.22;4987341;28;20056;-67
2022/06/07 03:19:13;;;;;;;1.92;0.90;;;;;;;-146.41;100.00;57768.22;4986055;28;20057;-67
2022/06/07 03:21:40;;;;;;;6.63;0.70;;;;;;;-146.41;100.00;57768.22;4987601;28;20050;-66
2022/06/07 03:24:08;;;;;;;2.95;0.70;;;;;;;-146.41;100.00;57768.22;4985927;28;20052;-66
2022/06/07 03:26:36;;;;;;;2.33;0.80;;;;;;;-146.41;100.00;57768.22;4985442;28;20128;-66
2022/06/07 03:29:04;;;;;;;2.08;0.65;;;;;;;-146.41;100.00;57768.22;4987409;28;20150;-66
2022/06/07 03:31:32;;;;;;;3.15;0.80;;;;;;;-146.41;100.00;57768.22;4988296;28;20156;-66
2022/06/07 03:33:59;;;;;;;6.07;0.90;;;;;;;-146.41;100.00;57768.22;4989139;28;20054;-66
2022/06/07 03:36:29;;;;;;;1.67;0.70;;;;;;;-146.41;100.00;57768.22;4991206;28;20051;-64
2022/06/07 03:39:01;;;;;;;3.67;0.80;;;;;;;-146.41;100.00;57768.22;4988752;28;20058;-65
2022/06/07 03:41:29;;;;;;;3.03;0.90;;;;;;;-146.41;100.00;57768.22;4986729;28;20484;-65
2022/06/07 03:43:57;;;;;;;2.92;0.90;;;;;;;-146.41;100.00;57768.22;4993300;28;20085;-65
2022/06/07 03:46:27;;;;;;;4.45;0.90;;;;;;;-146.41;100.00;57768.22;4987409;28;20054;-64
2022/06/07 03:48:56;;;;;;;2.15;1.10;;;;;;;-146.41;100.00;57768.22;4989030;28;20054;-64
2022/06/07 03:51:26;;;;;;;1.85;0.70;;;;;;;-146.41;100.00;57768.22;4970151;28;20086;-64
2022/06/07 03:53:53;;;;;;;2.25;0.70;;;;;;;-146.41;100.00;57768.22;4972575;28;20480;-63
2022/06/07 03:56:21;;;;;;;4.40;1.00;;;;;;;-146.41;100.00;57768.22;4985303;28;20073;-63
2022/06/07 03:58:49;;;;;;;3.80;0.90;;;;;;;-146.41;100.00;57768.22;4992737;28;20120;-63
2022/06/07 04:01:18;;;;;;;1.27;0.85;;;;;;;-146.41;100.00;57768.22;4992252;28;20558;-65
2022/06/07 04:03:47;;;;;;;2.65;0.90;;;;;;;-146.41;100.00;57768.22;4996204;28;20156;-66
2022/06/07 04:06:18;;;;;;;2.00;1.02;;;;;;;-146.41;100.00;57768.22;5000646;28;20053;-63
2022/06/07 04:08:45;;;;;;;2.63;0.95;;;;;;;-146.41;100.00;57768.22;4996852;28;20442;-63
2022/06/07 04:11:14;;;;;;;4.18;0.80;;;;;;;-146.41;100.00;57768.22;4996954;28;20078;-64
2022/06/07 04:13:42;;;;;;;4.13;0.98;;;;;;;-146.41;100.00;57768.22;4991275;28;20046;-65
2022/06/07 04:16:13;;;;;;;4.35;0.80;;;;;;;-146.41;100.00;57768.22;4995229;28;20133;-65
2022/06/07 04:18:40;;;;;;;3.05;1.00;;;;;;;-146.41;100.00;57768.22;4996150;28;20066;-66
2022/06/07 04:21:08;;;;;;;3.00;0.73;;;;;;;-146.41;100.00;57768.22;4996178;28;20093;-66
2022/06/07 04:23:36;;;;;;;2.10;0.80;;;;;;;-146.41;100.00;57768.22;4994807;28;20108;-66
2022/06/07 04:26:07;;;;;;;4.63;0.80;;;;;;;-146.41;100.00;57768.22;5000056;28;20112;-67
2022/06/07 04:28:35;;;;;;;4.28;0.90;;;;;;;-146.41;100.00;57768.22;4976699;28;20078;-66
2022/06/07 04:31:03;;;;;;;3.83;0.90;;;;;;;-146.41;100.00;57768.22;4995525;28;20049;-66
2022/06/07 04:33:30;;;;;;;3.58;0.93;;;;;;;-146.41;100.00;57768.22;4978535;28;20141;-66
2022/06/07 04:35:59;;;;;;;4.63;0.90;;;;;;;-146.41;100.00;57768.22;5003034;28;20571;-66
2022/06/07 04:38:28;;;;;;;2.42;1.10;;;;;;;-146.41;100.00;57768.22;5000235;28;20107;-65
2022/06/07 04:40:55;;;;;;;3.72;1.73;;;;;;;-146.41;100.00;57768.22;4999822;28;20515;-66
2022/06/07 04:43:23;;;;;;;4.60;1.30;;;;;;;-146.41;100.00;57768.22;4980280;28;20074;-65
2022/06/07 04:45:50;;;;;;;4.40;1.15;;;;;;;-146.41;100.00;57768.22;4997538;28;20148;-66
2022/06/07 04:48:18;;;;;;;3.10;1.52;;;;;;;-146.41;100.00;57768.22;4998309;28;20046;-65
2022/06/07 04:50:45;;;;;;;3.05;1.30;;;;;;;-146.41;100.00;57768.22;4994264;28;20202;-66
2022/06/07 04:53:13;;;;;;;3.13;1.50;;;;;;;-146.41;100.00;57768.22;4989656;28;20050;-66
2022/06/07 04:55:40;;;;;;;2.95;1.30;;;;;;;-146.41;100.00;57768.22;4996291;28;20465;-65
2022/06/07 04:58:07;;;;;;;5.45;1.00;;;;;;;-146.41;100.00;57768.22;4997776;28;20046;-66
2022/06/07 05:00:35;;;;;;;3.70;1.30;;;;;;;-146.41;100.00;57768.22;4992118;28;20160;-66
2022/06/07 05:03:02;;;;;;;3.65;1.30;;;;;;;-146.41;100.00;57768.22;4969421;28;20050;-66
2022/06/07 05:05:30;;;;;;;1.90;1.05;;;;;;;-146.41;100.00;57768.22;4998102;28;20137;-67
2022/06/07 05:07:57;;;;;;;2.83;1.15;;;;;;;-146.41;100.00;57768.22;4973402;28;20045;-66
2022/06/07 05:10:24;;;;;;;2.72;0.90;;;;;;;-146.41;100.00;57768.22;4980345;28;20058;-65
2022/06/07 05:12:52;;;;;;;3.38;1.05;;;;;;;-146.41;100.00;57768.22;4994075;28;20134;-67
2022/06/07 05:15:19;;;;;;;3.80;1.10;;;;;;;-146.41;100.00;57768.22;4996132;28;20535;-66
2022/06/07 05:17:50;;;;;;;3.05;0.80;;;;;;;-146.41;100.00;57768.22;4995630;28;20104;-67
2022/06/07 05:20:17;;;;;;;4.20;0.88;;;;;;;-146.41;100.00;57768.22;4994880;28;20050;-67
2022/06/07 05:22:45;;;;;;;5.22;1.13;;;;;;;-146.41;100.00;57768.22;4995618;28;20042;-65
2022/06/07 05:25:12;;;;;;;3.17;1.17;;;;;;;-146.41;100.00;57768.22;4994805;28;20158;-66
2022/06/07 05:27:43;;;;;;;5.13;1.30;;;;;;;-146.41;100.00;57768.22;4994950;28;20095;-65
2022/06/07 05:30:12;;;;;;;4.82;1.10;;;;;;;-146.41;100.00;57768.22;4992531;28;20109;-67
2022/06/07 05:32:40;;;;;;;4.95;1.25;;;;;;;-146.41;100.00;57768.22;4992324;28;20104;-66
2022/06/07 05:35:08;;;;;;;4.30;1.10;;;;;;;-146.41;100.00;57768.22;4994775;28;20062;-65
2022/06/07 05:37:35;;;;;;;7.03;1.23;;;;;;;-146.41;100.00;57768.22;4992178;28;20149;-65
2022/06/07 05:40:04;;;;;;;3.58;1.10;;;;;;;-146.41;100.00;57768.22;4991236;28;20740;-67
2022/06/07 05:42:32;;;;;;;2.45;1.00;;;;;;;-146.41;100.00;57768.22;4992531;28;20054;-66
2022/06/07 05:45:04;;;;;;;;;;;;;;;-146.41;100.00;57768.22;4994893;28;20496;-67
2022/06/07 05:47:32;;;;;;;1.60;1.02;;;;;;;-146.41;100.00;57768.22;4992298;28;19949;-66
2022/06/07 05:50:01;;;;;;;2.72;1.13;;;;;;;-146.41;100.00;57768.22;4991093;28;20056;-66
2022/06/07 05:52:28;;;;;;;1.80;0.90;;;;;;;-146.41;100.00;57768.22;4989229;28;20133;-65
2022/06/07 05:54:57;;;;;;;3.90;1.00;;;;;;;-146.41;100.00;57768.22;4988716;28;20089;-66
2022/06/07 05:57:24;;;;;;;3.00;1.20;;;;;;;-146.41;100.00;57768.22;4990003;28;20132;-65
2022/06/07 05:59:52;;;;;;;3.63;1.10;;;;;;;-146.41;100.00;57768.22;4990005;28;20164;-65
2022/06/07 06:02:19;;;;;;;2.83;0.88;;;;;;;-146.41;100.00;57768.22;4986627;28;20078;-66
2022/06/07 06:04:47;;;;;;;4.35;1.10;;;;;;;-146.41;100.00;57768.22;4986373;28;20090;-66
2022/06/07 06:07:15;;;;;;;2.28;0.90;;;;;;;-146.41;100.00;57768.22;4988262;28;20072;-65
2022/06/07 06:12:28;;;;;;;4.25;1.00;;;;;;;-146.41;100.00;57768.22;4986354;28;20420;-66
2022/06/07 06:14:56;;;;;;;3.90;1.00;;;;;;;-146.41;100.00;57768.22;4972344;28;20200;-65
2022/06/07 06:17:23;;;;;;;6.10;1.15;;;;;;;-146.41;100.00;57768.22;4993677;28;20800;-66
2022/06/07 06:19:50;;;;;;;4.38;0.93;;;;;;;-146.41;100.00;57768.22;4993399;28;20066;-66
2022/06/07 06:22:18;;;;;;;2.75;0.90;;;;;;;-146.41;100.00;57768.22;4991918;28;20141;-66
2022/06/07 06:24:46;;;;;;;4.05;1.30;;;;;;;-146.41;100.00;57768.22;4999406;28;20133;-67
2022/06/07 06:27:14;;;;;;;2.70;1.02;;;;;;;-146.41;100.00;57768.22;4983137;28;20101;-67
2022/06/07 06:29:41;;;;;;;3.97;0.80;;;;;;;-146.41;100.00;57768.22;4988605;28;20133;-66
2022/06/07 06:32:09;;;;;;;4.57;1.05;;;;;;;-146.41;100.00;57768.22;4988963;28;20100;-67
2022/06/07 06:34:36;;;;;;;3.72;1.00;;;;;;;-146.41;100.00;57768.22;4984362;28;20077;-66
2022/06/07 06:37:04;;;;;;;3.83;1.02;;;;;;;-146.41;100.00;57768.22;4984277;28;20054;-66
2022/06/07 06:39:31;;;;;;;4.78;1.13;;;;;;;-146.41;100.00;57768.22;4986523;28;20150;-67
2022/06/07 06:41:58;;;;;;;4.13;1.25;;;;;;;-146.41;100.00;57768.22;4988798;28;20060;-65
2022/06/07 06:44:26;;;;;;;5.13;0.90;;;;;;;-146.41;100.00;57768.22;4988855;28;20196;-67
2022/06/07 06:46:53;;;;;;;5.43;1.00;;;;;;;-146.41;100.00;57768.22;4990233;28;20697;-66
2022/06/07 06:49:21;;;;;;;4.28;1.10;;;;;;;-146.41;100.00;57768.22;4983537;28;20060;-66
2022/06/07 06:51:48;;;;;;;3.65;1.27;;;;;;;-146.41;100.00;57768.22;4984198;28;20141;-66
2022/06/07 06:54:16;;;;;;;3.95;1.20;;;;;;;-146.41;100.00;57768.22;4983790;28;20177;-66
2022/06/07 06:56:44;;;;;;;3.45;1.10;;;;;;;-146.41;100.00;57768.22;4987297;28;20058;-66
2022/06/07 06:59:13;;;;;;;5.10;1.30;;;;;;;-146.41;100.00;57768.22;4986969;28;20411;-66
2022/06/07 07:01:41;;;;;;;4.78;0.90;;;;;;;-146.41;100.00;57768.22;4992694;28;20130;-66
2022/06/07 07:04:16;;;;;;;4.80;1.02;;;;;;;-146.41;100.00;57768.22;4972214;28;20475;-66
2022/06/07 07:06:45;;;;;;;2.88;0.80;;;;;;;-146.41;100.00;57768.22;4972287;28;20089;-65
2022/06/07 07:09:14;;;;;;;5.63;0.80;;;;;;;-146.41;100.00;57768.22;4975143;28;20134;-66
2022/06/07 07:11:44;;;;;;;7.70;0.93;;;;;;;-146.41;100.00;57768.22;4984659;28;20180;-66
2022/06/07 07:14:12;;;;;;;3.53;0.90;;;;;;;-146.41;100.00;57768.22;4988431;28;20064;-66
2022/06/07 07:16:45;;;;;;;6.07;1.00;;;;;;;-146.41;100.00;57768.22;4992033;28;20528;-65
2022/06/07 07:19:14;;;;;;;3.45;0.80;;;;;;;-146.41;100.00;57768.22;4985067;28;20078;-67
2022/06/07 07:21:45;;;;;;;4.18;0.73;;;;;;;-146.41;100.00;57768.22;4989797;28;20050;-66
2022/06/07 07:24:16;;;;;;;2.33;0.85;;;;;;;-146.41;100.00;57768.22;4989686;28;20118;-66
2022/06/07 07:26:45;;;;;;;3.83;0.80;;;;;;;-146.41;100.00;57768.22;4986669;28;20509;-66
2022/06/07 07:29:14;;;;;;;2.38;0.70;;;;;;;-146.41;100.00;57768.22;4984465;28;20050;-66
2022/06/07 07:31:42;;;;;;;3.28;0.80;;;;;;;-146.41;100.00;57768.22;4985365;28;20058;-65
2022/06/07 07:34:14;;;;;;;2.63;0.80;;;;;;;-146.41;100.00;57768.22;4985233;28;20053;-64
2022/06/07 07:36:44;;;;;;;2.75;0.82;;;;;;;-146.41;100.00;57768.22;4982459;28;20503;-64
2022/06/07 07:39:18;;;;;;;2.15;0.70;;;;;;;-146.41;100.00;57768.22;4986941;28;20072;-64
2022/06/07 07:41:51;;;;;;;2.10;0.80;;;;;;;-146.41;100.00;57768.22;4985537;28;20707;-65
2022/06/07 07:44:20;;;;;;;3.70;0.80;;;;;;;-146.41;100.00;57768.22;4982203;28;20058;-66
2022/06/07 07:46:48;;;;;;;5.15;0.60;;;;;;;-146.41;100.00;57768.22;4986932;28;20086;-65
2022/06/07 07:49:18;;;;;;;5.95;0.80;;;;;;;-146.41;100.00;57768.22;4987587;28;20043;-66
2022/06/07 07:51:48;;;;;;;3.85;0.60;;;;;;;-146.41;100.00;57768.22;4969975;28;20058;-66
2022/06/07 07:54:18;;;;;;;6.95;0.90;;;;;;;-146.41;100.00;57768.22;4989641;28;20074;-65
2022/06/07 07:56:45;;;;;;;2.53;0.57;;;;;;;-146.41;100.00;57768.22;4985187;28;20187;-67
2022/06/07 07:59:14;;;;;;;2.85;0.70;;;;;;;-146.41;100.00;57768.22;4985733;28;20120;-66
2022/06/07 08:01:42;;;;;;;2.85;0.73;;;;;;;-146.41;100.00;57768.22;4987394;28;20109;-67
2022/06/07 08:04:10;;;;;;;3.45;0.60;;;;;;;-146.41;100.00;57768.22;4987677;28;20049;-64
2022/06/07 08:06:38;;;;;;;4.13;0.90;;;;;;;-146.41;100.00;57768.22;4982961;28;20936;-65
2022/06/07 08:09:08;;;;;;;2.70;0.55;;;;;;;-146.41;100.00;57768.22;4966846;28;20134;-65
2022/06/07 08:11:37;;;;;;;2.45;0.70;;;;;;;-146.41;100.00;57768.22;4985185;28;20093;-65
2022/06/07 08:14:08;;;;;;;4.22;0.80;;;;;;;-146.41;100.00;57768.22;4987274;28;20148;-65
2022/06/07 08:16:36;;;;;;;2.78;0.50;;;;;;;-146.41;100.00;57768.22;4988242;28;20072;-65
2022/06/07 08:19:08;;;;;;;2.53;0.70;;;;;;;-146.41;100.00;57768.22;4986361;28;20057;-64
2022/06/07 08:21:37;;;;;;;3.97;0.80;;;;;;;-146.41;100.00;57768.22;4986048;28;20049;-65
2022/06/07 08:24:05;;;;;;;2.08;0.60;;;;;;;-146.41;100.00;57768.22;4970939;28;20633;-65
2022/06/07 08:26:32;;;;;;;5.05;0.82;;;;;;;-146.41;100.00;57768.22;4987232;28;20081;-65
2022/06/07 08:29:01;;;;;;;3.42;0.50;;;;;;;-146.41;100.00;57768.22;4984325;28;20477;-66
2022/06/07 08:31:30;;;;;;;1.92;0.50;;;;;;;-146.41;100.00;57768.22;4974413;28;20412;-68
2022/06/07 08:39:31;;;;;;;2.35;0.50;;;;;;;-146.41;100.00;57768.22;4982944;28;20057;-67
2022/06/07 08:42:01;;;;;;;3.10;0.50;;;;;;;-146.41;100.00;57768.22;4980414;28;20483;-66
2022/06/07 08:44:37;;;;;;;3.10;0.60;;;;;;;-146.41;100.00;57768.22;4993638;28;20456;-66
2022/06/07 08:47:28;;;;;;;3.60;0.80;;;;;;;-146.41;100.00;57768.22;4986676;28;20100;-66
2022/06/07 08:49:58;;;;;;;3.85;0.47;;;;;;;-146.41;100.00;57768.22;4972226;28;20169;-66
2022/06/07 08:52:26;;;;;;;2.25;0.50;;;;;;;-146.41;100.00;57768.22;4990042;28;20127;-64
2022/06/07 08:54:58;;;;;;;4.82;0.60;;;;;;;-146.41;100.00;57768.22;4985980;28;20054;-63
2022/06/07 08:57:30;;;;;;;2.60;0.70;;;;;;;-146.41;100.00;57768.22;4966613;28;20160;-63
2022/06/07 09:00:19;;;;;;;3.83;1.00;;;;;;;-146.41;100.00;57768.22;4986807;28;20137;-65
2022/06/07 09:03:05;;;;;;;1.60;0.50;;;;;;;-146.41;100.00;57768.22;4990661;28;20066;-64
2022/06/07 09:05:33;;;;;;;4.22;0.60;;;;;;;-146.41;100.00;57768.22;4953600;28;20061;-66
2022/06/07 09:08:01;;;;;;;3.72;0.60;;;;;;;-146.41;100.00;57768.22;4992014;28;20086;-64
2022/06/07 09:13:22;;;;;;;6.88;0.90;;;;;;;-146.41;100.00;57768.22;4982245;28;20052;-66
2022/06/07 09:15:54;;;;;;;3.00;0.50;;;;;;;-146.41;100.00;57768.22;4985330;28;20101;-66
2022/06/07 09:18:25;;;;;;;2.13;0.50;;;;;;;-146.41;100.00;57768.22;4986226;28;20326;-64
2022/06/07 09:20:58;;;;;;;3.10;0.50;;;;;;;-146.41;100.00;57768.22;4988797;28;20046;-64
2022/06/07 09:23:30;;;;;;;5.95;0.50;;;;;;;-146.41;100.00;57768.22;4986282;28;20054;-64
2022/06/07 09:26:18;;;;;;;3.75;0.70;;;;;;;-146.41;100.00;57768.22;4970317;28;20054;-65
2022/06/07 09:28:50;;;;;;;;;;;;;;;-146.41;100.00;57768.22;4975359;28;20050;-65
2022/06/07 09:31:20;;;;;;;0.73;0.40;;;;;;;-146.41;100.00;57768.22;4988417;28;20008;-64
2022/06/07 09:33:53;;;;;;;4.95;0.60;;;;;;;-146.41;100.00;57768.22;4985130;28;20054;-64
2022/06/07 09:36:29;;;;;;;5.25;0.60;;;;;;;-146.41;100.00;57768.22;4991505;28;20046;-65
2022/06/07 09:39:12;;;;;;;3.13;0.40;;;;;;;-146.41;100.00;57768.22;4995033;28;20464;-65
2022/06/07 09:41:45;;;;;;;2.65;0.50;;;;;;;-146.41;100.00;57768.22;4962292;28;20575;-66
2022/06/07 09:44:23;;;;;;;2.30;0.40;;;;;;;-146.41;100.00;57768.22;4971601;28;20129;-66
2022/06/07 09:47:02;;;;;;;4.22;0.50;;;;;;;-146.41;100.00;57768.22;4970379;28;20052;-66
2022/06/07 09:49:43;;;;;;;1.70;0.40;;;;;;;-146.41;100.00;57768.22;4982258;28;20081;-65
2022/06/07 09:52:25;;;;;;;1.67;0.50;;;;;;;-146.41;100.00;57768.22;4968968;28;20054;-65
2022/06/07 09:55:16;;;;;;;3.55;0.50;;;;;;;-146.41;100.00;57768.22;4994827;28;20100;-68
2022/06/07 09:57:54;;;;;;;3.08;0.88;;;;;;;-146.41;100.00;57768.22;4942634;28;20511;-64
2022/06/07 10:00:38;;;;;;;2.03;0.45;;;;;;;-146.41;100.00;57768.22;4993433;28;20054;-66
2022/06/07 10:03:38;;;;;;;4.82;0.60;;;;;;;-146.41;100.00;57768.22;4988912;28;20616;-66
2022/06/07 10:06:27;;;;;;;1.63;0.50;;;;;;;-146.41;100.00;57768.22;4987688;28;20169;-65
2022/06/07 10:09:31;;;;;;;2.45;0.40;;;;;;;-146.41;100.00;57768.22;4993748;28;20074;-66
2022/06/07 10:12:10;;;;;;;2.63;0.50;;;;;;;-146.41;100.00;57768.22;4970582;28;20095;-65
2022/06/07 10:15:03;;;;;;;1.90;0.40;;;;;;;-146.41;100.00;57768.22;4986731;28;20078;-66
2022/06/07 10:17:58;;;;;;;2.75;0.40;;;;;;;-146.41;100.00;57768.22;4949271;28;20050;-66
2022/06/07 10:20:29;;;;;;;2.65;0.55;;;;;;;-146.41;100.00;57768.22;4984277;28;20074;-65
2022/06/07 10:23:06;;;;;;;4.00;0.70;;;;;;;-146.41;100.00;57768.22;4985041;28;20136;-64
2022/06/07 10:26:16;;;;;;;1.95;0.52;;;;;;;-146.41;100.00;57768.22;4960178;28;20149;-67
2022/06/07 10:29:11;;;;;;;1.90;0.40;;;;;;;-146.41;100.00;57768.22;4983839;28;20166;-66
2022/06/07 10:32:00;;;;;;;2.53;0.60;;;;;;;-146.41;100.00;57768.22;4987533;28;20078;-65
2022/06/07 10:34:47;;;;;;;2.25;0.68;;;;;;;-146.41;100.00;57768.22;4972889;28;20070;-66
2022/06/07 10:37:28;;;;;;;2.97;0.60;;;;;;;-146.41;100.00;57768.22;4985833;28;20054;-65
2022/06/07 10:40:19;;;;;;;3.33;0.50;;;;;;;-146.41;100.00;57768.22;4970941;28;20074;-65
2022/06/07 10:42:52;;;;;;;2.40;0.50;;;;;;;-146.41;100.00;57768.22;4984521;28;20145;-66
2022/06/07 10:45:27;;;;;;;2.08;0.50;;;;;;;-146.41;100.00;57768.22;4988968;28;20073;-66
2022/06/07 10:48:01;;;;;;;3.25;0.40;;;;;;;-146.41;100.00;57768.22;4985252;28;20598;-67
2022/06/07 10:50:39;;;;;;;2.08;0.38;;;;;;;-146.41;100.00;57768.22;4990434;28;20050;-65
2022/06/07 10:53:18;;;;;;;1.95;0.50;;;;;;;-146.41;100.00;57768.22;4987108;28;20156;-66
2022/06/07 10:56:14;;;;;;;2.17;0.50;;;;;;;-146.41;100.00;57768.22;4984984;28;20624;-66
2022/06/07 10:58:48;;;;;;;0.95;0.40;;;;;;;-146.41;100.00;57768.22;4968490;28;20420;-66
2022/06/07 11:01:18;;;;;;;1.42;0.50;;;;;;;-146.41;100.00;57768.22;4985363;28;20073;-66
2022/06/07 11:03:54;;;;;;;1.60;0.30;;;;;;;-146.41;100.00;57768.22;4989590;28;20064;-66
2022/06/07 11:09:37;;;;;;;1.05;0.30;;;;;;;-146.41;100.00;57768.22;4985263;28;20580;-65
2022/06/07 11:12:16;;;;;;;2.53;0.47;;;;;;;-146.41;100.00;57768.22;4972242;28;20089;-65
2022/06/07 11:15:14;;;;;;;1.75;0.68;;;;;;;-146.41;100.00;57768.22;4971038;28;20098;-65
2022/06/07 11:17:47;;;;;;;4.90;0.40;;;;;;;-146.41;100.00;57768.22;4960078;28;20253;-67
2022/06/07 11:20:17;;;;;;;1.35;0.30;;;;;;;-146.41;100.00;57768.22;4985888;28;20114;-66
2022/06/07 11:23:17;;;;;;;1.70;0.40;;;;;;;-146.41;100.00;57768.22;4988695;28;20088;-65
2022/06/07 11:26:14;;;;;;;1.63;0.45;;;;;;;-146.41;100.00;57768.22;4969792;28;20046;-65
2022/06/07 11:28:41;;;;;;;4.10;1.30;;;;;;;-146.41;100.00;57768.22;4986672;28;20053;-66
2022/06/07 11:31:21;;;;;;;3.58;0.40;;;;;;;-146.41;100.00;57768.22;4981106;28;20176;-66
2022/06/07 11:33:51;;;;;;;1.77;0.60;;;;;;;-146.41;100.00;57768.22;4983067;28;20050;-65
2022/06/07 11:36:28;;;;;;;1.45;0.50;;;;;;;-146.41;100.00;57768.22;4984821;28;20092;-65
2022/06/07 11:38:56;;;;;;;1.92;0.30;;;;;;;-146.41;100.00;57768.22;4964540;28;20142;-66
2022/06/07 11:41:38;;;;;;;1.45;0.40;;;;;;;-146.41;100.00;57768.22;4984215;28;20046;-66
2022/06/07 11:44:11;;;;;;;0.50;0.20;;;;;;;-146.41;100.00;57768.22;4987951;28;20054;-66
2022/06/07 11:46:40;;;;;;;1.65;0.30;;;;;;;-146.41;100.00;57768.22;4986151;28;20046;-67
2022/06/07 11:49:21;;;;;;;1.42;0.28;;;;;;;-146.41;100.00;57768.22;4987726;28;20147;-64